Time;durP1;ratioP1;P1;durP2;ratioP2;P2;SDS_P1;SDS_P2;PMS_P1;PMS_P2;Temp;Humidity;BMP_temperature;BMP_pressure;BME280_temperature;BME280_humidity;BME280_pressure;Samples;Min_cycle;Max_cycle;Signal;HPM_P1;HPM_P2
2022/01/29 01:22:08;;;;;;;16.02;9.40;;;;;;;3.63;100.00;101535.31;5112281;23;20496;-72
2022/01/29 01:24:54;;;;;;;20.55;10.07;;;;;;;3.60;100.00;101532.63;4974915;28;20039;-72
2022/01/29 01:27:39;;;;;;;17.75;9.30;;;;;;;3.47;100.00;101536.66;4972940;28;20423;-72
2022/01/29 01:30:25;;;;;;;16.25;8.95;;;;;;;3.40;100.00;101539.94;4974805;28;20038;-72
2022/01/29 01:33:11;;;;;;;16.52;9.27;;;;;;;3.55;100.00;101537.72;4960575;28;20022;-72
2022/01/29 01:36:01;;;;;;;18.27;10.10;;;;;;;3.59;100.00;101525.72;4973840;28;20110;-72
2022/01/29 01:38:56;;;;;;;17.42;10.00;;;;;;;3.59;100.00;101536.97;4974904;28;20478;-73
2022/01/29 01:41:52;;;;;;;17.45;9.82;;;;;;;3.37;100.00;101528.63;4974520;28;20038;-72
2022/01/29 01:44:45;;;;;;;17.35;9.35;;;;;;;3.53;100.00;101535.91;4973792;28;20026;-72
2022/01/29 01:47:34;;;;;;;17.20;9.25;;;;;;;3.53;100.00;101530.72;4973921;28;20027;-72
2022/01/29 01:50:21;;;;;;;16.60;10.38;;;;;;;3.53;100.00;101531.63;4974396;28;20030;-73
2022/01/29 01:53:08;;;;;;;17.67;9.20;;;;;;;3.55;100.00;101531.66;4974227;28;20456;-73
2022/01/29 01:55:53;;;;;;;19.65;9.85;;;;;;;3.42;100.00;101527.03;4961254;28;20045;-72
2022/01/29 01:58:39;;;;;;;17.35;9.98;;;;;;;3.58;100.00;101524.81;4974671;28;20121;-72
2022/01/29 02:01:25;;;;;;;17.63;9.88;;;;;;;3.48;100.00;101516.81;4973926;28;20030;-72
2022/01/29 02:04:11;;;;;;;17.90;8.98;;;;;;;3.30;100.00;101521.56;4974652;28;20062;-72
2022/01/29 02:06:58;;;;;;;17.17;9.00;;;;;;;3.47;100.00;101531.50;4973620;28;20368;-72
2022/01/29 02:09:44;;;;;;;14.13;9.02;;;;;;;3.48;100.00;101525.47;4974413;28;20435;-73
2022/01/29 02:12:33;;;;;;;17.20;10.15;;;;;;;3.29;100.00;101528.44;4962371;28;20045;-72
2022/01/29 02:15:21;;;;;;;17.52;9.70;;;;;;;3.05;100.00;101534.75;4979243;28;20466;-72
2022/01/29 02:18:13;;;;;;;16.85;9.43;;;;;;;2.90;100.00;101542.94;4977851;28;20031;-72
2022/01/29 02:20:59;;;;;;;16.55;9.25;;;;;;;2.91;100.00;101552.50;4969126;28;20051;-72
2022/01/29 02:23:45;;;;;;;15.93;9.35;;;;;;;3.14;100.00;101558.25;4966051;28;20111;-73
2022/01/29 02:26:31;;;;;;;17.10;9.70;;;;;;;3.09;100.00;101555.53;4978350;28;20022;-72
2022/01/29 02:29:18;;;;;;;16.65;9.32;;;;;;;3.47;100.00;101564.28;4977052;28;20042;-73
2022/01/29 02:32:05;;;;;;;14.68;8.90;;;;;;;3.20;100.00;101558.41;4978113;28;20345;-73
2022/01/29 06:12:00;;;;;;;16.95;9.75;;;;;;;2.51;100.00;101766.00;5375450;23;20051;-72
2022/01/29 06:14:46;;;;;;;16.02;10.23;;;;;;;2.68;100.00;101763.13;4959694;29;20045;-73
2022/01/29 06:17:32;;;;;;;15.13;9.30;;;;;;;2.48;100.00;101771.06;4958776;28;20031;-73
2022/01/29 06:20:17;;;;;;;14.68;9.43;;;;;;;2.69;100.00;101780.41;4952478;29;20030;-73
2022/01/29 06:23:03;;;;;;;14.63;9.68;;;;;;;2.59;100.00;101772.31;4958052;29;20031;-72
2022/01/29 06:25:49;;;;;;;15.00;9.68;;;;;;;2.66;100.00;101769.09;4959347;28;20042;-74
2022/01/29 06:28:36;;;;;;;14.70;9.10;;;;;;;2.69;100.00;101776.94;4959860;28;20069;-73
2022/01/29 10:10:19;;;;;;;12.15;8.15;;;;;;;7.66;100.00;101852.88;5194141;23;20055;-72
2022/01/29 10:13:32;;;;;;;16.58;8.63;;;;;;;7.97;100.00;101850.66;4955754;29;20070;-73
2022/01/29 10:16:23;;;;;;;10.88;8.00;;;;;;;8.62;100.00;101841.75;4956295;28;20031;-73
2022/01/29 10:19:13;;;;;;;13.38;7.90;;;;;;;7.89;100.00;101843.59;4947541;29;20041;-72
2022/01/29 10:21:59;;;;;;;11.63;8.18;;;;;;;8.12;100.00;101836.88;4946647;29;20422;-71
2022/01/29 10:24:51;;;;;;;13.45;8.05;;;;;;;8.77;98.20;101841.00;4953042;29;20361;-73
2022/01/29 10:27:38;;;;;;;12.75;7.97;;;;;;;9.03;95.94;101839.41;4953711;28;20027;-73
2022/01/29 10:30:24;;;;;;;13.90;8.30;;;;;;;8.75;97.00;101840.09;4936298;29;20069;-73
2022/01/29 10:33:19;;;;;;;11.65;7.68;;;;;;;8.99;92.88;101843.75;4956335;28;20035;-72
2022/01/29 10:36:14;;;;;;;13.10;8.20;;;;;;;8.61;96.19;101846.97;4959363;28;20062;-71
2022/01/29 10:39:00;;;;;;;12.98;7.35;;;;;;;8.39;99.10;101845.88;4958028;29;20031;-72
2022/01/29 10:41:46;;;;;;;12.98;8.35;;;;;;;9.18;94.90;101850.88;4956656;29;20038;-73
2022/01/29 10:44:43;;;;;;;13.23;8.50;;;;;;;9.25;92.66;101850.03;4957558;29;20031;-72
2022/01/29 10:47:55;;;;;;;12.95;8.02;;;;;;;9.98;86.79;101852.09;4957266;28;20031;-73
2022/01/29 10:50:41;;;;;;;14.80;7.30;;;;;;;9.33;88.89;101847.47;4958502;29;20039;-73
2022/01/29 10:53:27;;;;;;;11.68;7.53;;;;;;;9.52;84.55;101841.44;4957371;29;20388;-72
2022/01/29 10:56:13;;;;;;;12.00;7.78;;;;;;;9.94;83.34;101844.25;4958565;28;20117;-73
2022/01/29 10:58:59;;;;;;;11.80;6.88;;;;;;;9.77;80.02;101844.16;4948904;29;20031;-73
2022/01/29 11:02:11;;;;;;;11.52;6.75;;;;;;;9.67;80.01;101847.63;4959237;29;20026;-73
2022/01/29 11:05:00;;;;;;;10.75;6.90;;;;;;;9.14;83.79;101841.25;4958869;29;20035;-72
2022/01/29 11:07:50;;;;;;;11.20;6.78;;;;;;;9.71;81.43;101841.56;4955363;29;20042;-73
2022/01/29 12:07:16;;;;;;;9.60;5.68;;;;;;;10.58;64.80;101811.19;5575797;23;20055;-73
2022/01/29 12:10:09;;;;;;;7.80;5.55;;;;;;;10.65;63.39;101805.94;4957553;29;20047;-73
2022/01/29 12:13:10;;;;;;;9.40;6.80;;;;;;;10.43;63.35;101798.97;4956319;29;20096;-73
2022/01/29 14:32:43;;;;;;;8.35;5.95;;;;;;;9.52;58.94;101807.44;5351829;23;20050;-72
2022/01/29 14:35:29;;;;;;;7.95;4.80;;;;;;;9.18;60.08;101805.53;4996608;28;20085;-73
2022/01/29 14:38:15;;;;;;;8.55;5.03;;;;;;;9.73;59.04;101808.38;4997038;28;20027;-73
2022/01/29 14:41:03;;;;;;;9.45;5.38;;;;;;;9.75;58.51;101811.91;4997277;28;20037;-73
2022/01/29 14:43:49;;;;;;;7.82;5.13;;;;;;;9.56;59.70;101807.47;4996822;28;20038;-72
2022/01/29 18:11:24;;;;;;;39.00;22.58;;;;;;;5.27;95.22;101856.50;4919872;29;20383;-74
2022/01/29 18:14:10;;;;;;;41.00;23.63;;;;;;;5.42;94.94;101862.00;4921873;29;20354;-74
2022/01/29 18:16:57;;;;;;;41.85;23.52;;;;;;;5.74;92.70;101865.28;4932848;29;20028;-73
2022/01/29 18:19:42;;;;;;;35.40;19.92;;;;;;;5.21;96.03;101859.81;4940140;29;20035;-73
2022/01/29 18:22:28;;;;;;;36.03;19.80;;;;;;;5.00;95.59;101855.88;4921282;29;20110;-74
2022/01/29 18:25:14;;;;;;;31.63;18.50;;;;;;;4.98;96.97;101852.34;4939001;29;20035;-74
2022/01/29 18:28:02;;;;;;;33.20;18.33;;;;;;;5.19;93.51;101853.69;4931173;29;20055;-73
2022/01/29 18:30:48;;;;;;;27.58;16.70;;;;;;;5.32;91.72;101847.06;4940376;29;20058;-74
2022/01/29 18:33:34;;;;;;;30.30;17.88;;;;;;;5.36;92.21;101854.09;4939423;29;20024;-74
2022/01/29 18:36:22;;;;;;;26.75;15.95;;;;;;;5.43;89.75;101851.63;4939664;29;20059;-72
2022/01/29 18:39:12;;;;;;;25.17;13.95;;;;;;;5.43;89.35;101861.19;4939539;29;20036;-74
2022/01/29 18:42:00;;;;;;;24.13;12.80;;;;;;;5.17;91.30;101859.72;4939090;29;20031;-74
2022/01/29 18:44:46;;;;;;;22.90;13.93;;;;;;;5.26;92.26;101860.81;4938952;29;20028;-74
2022/01/29 22:03:19;;;;;;;18.83;9.88;;;;;;;3.00;100.00;101744.25;6015908;23;20026;31
2022/01/29 22:06:05;;;;;;;14.93;8.55;;;;;;;2.71;100.00;101745.13;4898459;29;20044;-72
2022/01/29 22:08:56;;;;;;;17.20;10.00;;;;;;;2.52;100.00;101747.06;4899262;29;20040;-71
2022/01/29 22:11:42;;;;;;;14.57;9.02;;;;;;;2.72;100.00;101743.38;4885133;29;20032;-72
2022/01/29 22:14:28;;;;;;;16.15;8.75;;;;;;;2.70;100.00;101732.13;4900618;29;20391;-72
2022/01/29 22:17:13;;;;;;;16.40;9.07;;;;;;;2.77;100.00;101741.84;4898832;29;20051;-72
2022/01/29 22:19:59;;;;;;;15.73;9.50;;;;;;;2.71;100.00;101737.34;4899173;29;20116;-71
2022/01/29 22:22:45;;;;;;;16.05;9.13;;;;;;;2.60;100.00;101741.31;4899462;29;20036;-72
2022/01/29 22:25:31;;;;;;;15.60;9.85;;;;;;;2.85;100.00;101738.63;4898919;29;20044;-71
2022/01/29 22:28:16;;;;;;;16.63;9.38;;;;;;;2.93;100.00;101731.09;4899044;29;20112;-72
2022/01/29 22:31:04;;;;;;;18.50;9.32;;;;;;;2.72;100.00;101731.34;4903226;29;20033;-73
2022/01/29 22:33:50;;;;;;;15.50;9.65;;;;;;;2.73;100.00;101733.09;4902621;29;20029;-72
2022/01/29 22:36:35;;;;;;;17.67;9.85;;;;;;;2.60;100.00;101715.44;4902354;29;20343;-72
2022/01/29 22:39:23;;;;;;;15.90;9.70;;;;;;;2.65;100.00;101711.28;4903091;29;20047;-72
2022/01/29 22:42:09;;;;;;;16.08;9.75;;;;;;;2.84;100.00;101699.75;4902742;29;20044;-72
2022/01/29 22:44:55;;;;;;;15.88;9.30;;;;;;;2.69;100.00;101710.53;4902529;29;20423;-72
2022/01/29 22:47:41;;;;;;;17.02;9.32;;;;;;;2.65;100.00;101693.16;4902414;29;20044;-72
2022/01/29 22:50:27;;;;;;;16.63;9.90;;;;;;;2.41;100.00;101692.44;4902641;29;20043;-73
2022/01/29 22:53:13;;;;;;;19.42;10.38;;;;;;;2.57;100.00;101680.88;4902380;29;20040;-73
2022/01/29 22:55:58;;;;;;;19.50;10.40;;;;;;;2.53;100.00;101685.03;4902700;29;20418;-72
2022/01/29 22:58:44;;;;;;;16.67;10.15;;;;;;;2.61;100.00;101685.28;4902388;29;20134;-71
2022/01/29 23:01:31;;;;;;;17.45;10.05;;;;;;;2.35;100.00;101670.69;4902241;29;20033;-72
2022/01/29 23:04:23;;;;;;;16.95;9.85;;;;;;;2.33;100.00;101670.63;4901733;29;20059;-72
2022/01/29 23:07:11;;;;;;;16.73;9.80;;;;;;;2.30;100.00;101662.81;4909080;29;20075;-72
2022/01/29 23:10:11;;;;;;;19.35;10.57;;;;;;;2.47;100.00;101656.44;4902297;29;20028;-72
2022/01/29 23:13:46;;;;;;;17.10;9.82;;;;;;;2.31;100.00;101653.31;4906187;29;20064;-72
2022/01/29 23:16:19;;;;;;;18.73;10.57;;;;;;;2.44;100.00;101655.44;4895087;29;20047;-72
2022/01/29 23:19:08;;;;;;;18.85;10.55;;;;;;;2.51;100.00;101645.34;4901394;29;20032;-71
2022/01/29 23:24:58;;;;;;;17.05;10.50;;;;;;;2.63;100.00;101639.63;4902101;29;20111;-72
2022/01/29 23:28:03;;;;;;;19.02;10.73;;;;;;;2.64;100.00;101637.09;4902221;29;20119;-72
2022/01/29 23:30:49;;;;;;;16.40;10.50;;;;;;;2.29;100.00;101635.19;4901955;29;20051;-71
2022/01/29 23:36:37;;;;;;;18.55;10.73;;;;;;;2.48;100.00;101640.06;4900962;29;20091;-72
2022/01/29 23:39:30;;;;;;;17.52;10.50;;;;;;;2.52;100.00;101639.34;4901701;29;20040;-72
2022/01/29 23:45:29;;;;;;;19.73;10.55;;;;;;;2.59;100.00;101648.16;4899766;29;20359;-72
2022/01/29 23:51:20;;;;;;;16.75;10.45;;;;;;;2.23;100.00;101635.00;4901720;29;20043;-72
2022/01/29 23:54:05;;;;;;;18.65;10.38;;;;;;;2.33;100.00;101633.59;4900969;29;20029;-72
2022/01/29 23:56:51;;;;;;;15.13;9.98;;;;;;;2.36;100.00;101623.31;4901650;29;20031;-72
2022/01/29 23:59:37;;;;;;;18.63;10.20;;;;;;;2.58;100.00;101607.59;4900121;29;20462;-72
